Terminal Aerodrome Forecast
Issued by NWS

Home | Current Version | Previous Version | Text Only | Print | Product List | Glossary Off
Versions: 1 2 3 4 5 6 7 8 9 10 11 12

000
FTUS45 KGGW 200500
TAFSDY
TAF
KSDY 200520Z 2006/2106 VRB04KT P6SM SCT130
     FM201200 VRB06KT P6SM VCSH OVC130
     FM201800 27010KT P6SM VCTS BKN070CB
     FM210000 VRB05KT P6SM VCSH SCT035
      AMD LTD TO CLD VIS AND WIND=

USA.gov is the U.S. government's official web portal to all federal, state and local government web resources and services.